sensor_id;sensor_type;location;lat;lon;timestamp;P1;durP1;ratioP1;P2;durP2;ratioP2
13566;SDS011;6855;48.112;11.298;2023-03-01T00:00:04;24.00;;;12.37;;
13566;SDS011;6855;48.112;11.298;2023-03-01T00:02:33;27.40;;;11.03;;
13566;SDS011;6855;48.112;11.298;2023-03-01T00:05:01;21.27;;;11.80;;
13566;SDS011;6855;48.112;11.298;2023-03-01T00:07:29;18.23;;;11.10;;
13566;SDS011;6855;48.112;11.298;2023-03-01T00:09:56;19.57;;;11.20;;
13566;SDS011;6855;48.112;11.298;2023-03-01T00:12:23;18.50;;;11.03;;
13566;SDS011;6855;48.112;11.298;2023-03-01T00:14:50;19.00;;;11.37;;
13566;SDS011;6855;48.112;11.298;2023-03-01T00:17:18;23.07;;;11.77;;
13566;SDS011;6855;48.112;11.298;2023-03-01T00:19:45;21.20;;;11.63;;
13566;SDS011;6855;48.112;11.298;2023-03-01T00:22:13;20.53;;;11.17;;
13566;SDS011;6855;48.112;11.298;2023-03-01T00:24:40;23.37;;;11.70;;
13566;SDS011;6855;48.112;11.298;2023-03-01T00:27:08;20.50;;;11.50;;
13566;SDS011;6855;48.112;11.298;2023-03-01T00:29:35;20.53;;;11.57;;
13566;SDS011;6855;48.112;11.298;2023-03-01T00:32:02;19.40;;;11.30;;
13566;SDS011;6855;48.112;11.298;2023-03-01T00:34:29;20.70;;;12.13;;
13566;SDS011;6855;48.112;11.298;2023-03-01T00:36:57;20.70;;;11.80;;
13566;SDS011;6855;48.112;11.298;2023-03-01T00:39:32;18.53;;;11.00;;
13566;SDS011;6855;48.112;11.298;2023-03-01T00:41:59;23.87;;;12.20;;
13566;SDS011;6855;48.112;11.298;2023-03-01T00:44:26;19.10;;;11.53;;
13566;SDS011;6855;48.112;11.298;2023-03-01T00:46:53;22.53;;;12.50;;
13566;SDS011;6855;48.112;11.298;2023-03-01T00:49:21;21.80;;;12.20;;
13566;SDS011;6855;48.112;11.298;2023-03-01T00:51:49;19.93;;;11.67;;
13566;SDS011;6855;48.112;11.298;2023-03-01T00:54:16;19.70;;;11.23;;
13566;SDS011;6855;48.112;11.298;2023-03-01T00:56:45;20.77;;;12.20;;
13566;SDS011;6855;48.112;11.298;2023-03-01T00:59:12;17.80;;;9.80;;
13566;SDS011;6855;48.112;11.298;2023-03-01T01:01:39;16.07;;;10.40;;
13566;SDS011;6855;48.112;11.298;2023-03-01T01:04:07;18.40;;;9.80;;
13566;SDS011;6855;48.112;11.298;2023-03-01T01:06:35;20.37;;;11.67;;
13566;SDS011;6855;48.112;11.298;2023-03-01T01:09:03;22.10;;;12.13;;
13566;SDS011;6855;48.112;11.298;2023-03-01T01:11:30;24.17;;;11.50;;
13566;SDS011;6855;48.112;11.298;2023-03-01T01:13:59;18.93;;;11.87;;
13566;SDS011;6855;48.112;11.298;2023-03-01T01:16:27;20.90;;;12.00;;
13566;SDS011;6855;48.112;11.298;2023-03-01T01:18:55;18.97;;;11.43;;
13566;SDS011;6855;48.112;11.298;2023-03-01T01:21:23;19.30;;;11.20;;
13566;SDS011;6855;48.112;11.298;2023-03-01T01:23:50;20.43;;;11.70;;
13566;SDS011;6855;48.112;11.298;2023-03-01T01:26:18;21.83;;;11.03;;
13566;SDS011;6855;48.112;11.298;2023-03-01T01:28:46;17.57;;;10.67;;
13566;SDS011;6855;48.112;11.298;2023-03-01T01:31:14;19.93;;;11.90;;
13566;SDS011;6855;48.112;11.298;2023-03-01T01:33:42;20.27;;;10.77;;
13566;SDS011;6855;48.112;11.298;2023-03-01T01:36:09;22.43;;;11.47;;
13566;SDS011;6855;48.112;11.298;2023-03-01T01:38:37;24.23;;;11.90;;
13566;SDS011;6855;48.112;11.298;2023-03-01T01:41:04;22.33;;;12.60;;
13566;SDS011;6855;48.112;11.298;2023-03-01T01:43:33;21.00;;;11.70;;
13566;SDS011;6855;48.112;11.298;2023-03-01T01:46:01;16.87;;;11.00;;
13566;SDS011;6855;48.112;11.298;2023-03-01T01:48:32;23.10;;;11.10;;
13566;SDS011;6855;48.112;11.298;2023-03-01T01:51:05;21.50;;;10.67;;
13566;SDS011;6855;48.112;11.298;2023-03-01T01:53:34;16.90;;;9.67;;
13566;SDS011;6855;48.112;11.298;2023-03-01T01:56:02;24.90;;;12.00;;
13566;SDS011;6855;48.112;11.298;2023-03-01T01:58:30;21.03;;;11.50;;
13566;SDS011;6855;48.112;11.298;2023-03-01T02:00:57;17.20;;;10.50;;
13566;SDS011;6855;48.112;11.298;2023-03-01T02:03:27;17.67;;;10.43;;
13566;SDS011;6855;48.112;11.298;2023-03-01T02:06:00;22.40;;;12.80;;
13566;SDS011;6855;48.112;11.298;2023-03-01T02:08:31;21.80;;;12.53;;
13566;SDS011;6855;48.112;11.298;2023-03-01T02:11:00;21.40;;;11.47;;
13566;SDS011;6855;48.112;11.298;2023-03-01T02:13:29;18.33;;;11.80;;
13566;SDS011;6855;48.112;11.298;2023-03-01T02:15:56;19.73;;;10.13;;
13566;SDS011;6855;48.112;11.298;2023-03-01T02:18:25;19.27;;;11.93;;
13566;SDS011;6855;48.112;11.298;2023-03-01T02:20:56;19.17;;;11.07;;
13566;SDS011;6855;48.112;11.298;2023-03-01T02:23:29;20.77;;;11.20;;
13566;SDS011;6855;48.112;11.298;2023-03-01T02:26:00;17.73;;;11.17;;
13566;SDS011;6855;48.112;11.298;2023-03-01T02:28:31;15.80;;;10.50;;
13566;SDS011;6855;48.112;11.298;2023-03-01T02:30:59;23.03;;;10.50;;
13566;SDS011;6855;48.112;11.298;2023-03-01T02:33:44;17.13;;;10.60;;
13566;SDS011;6855;48.112;11.298;2023-03-01T02:36:14;22.87;;;11.87;;
13566;SDS011;6855;48.112;11.298;2023-03-01T02:38:42;19.27;;;11.60;;
13566;SDS011;6855;48.112;11.298;2023-03-01T02:41:10;21.23;;;11.07;;
13566;SDS011;6855;48.112;11.298;2023-03-01T02:43:40;21.63;;;13.17;;
13566;SDS011;6855;48.112;11.298;2023-03-01T02:46:07;23.17;;;12.53;;
13566;SDS011;6855;48.112;11.298;2023-03-01T02:48:41;20.60;;;12.03;;
13566;SDS011;6855;48.112;11.298;2023-03-01T02:51:11;22.73;;;11.20;;
13566;SDS011;6855;48.112;11.298;2023-03-01T02:53:42;19.97;;;11.70;;
13566;SDS011;6855;48.112;11.298;2023-03-01T02:56:15;28.00;;;12.13;;
13566;SDS011;6855;48.112;11.298;2023-03-01T02:58:44;17.83;;;11.20;;
13566;SDS011;6855;48.112;11.298;2023-03-01T03:01:15;22.47;;;12.03;;
13566;SDS011;6855;48.112;11.298;2023-03-01T03:03:43;16.03;;;11.60;;
13566;SDS011;6855;48.112;11.298;2023-03-01T03:06:10;20.87;;;11.97;;
13566;SDS011;6855;48.112;11.298;2023-03-01T03:08:37;21.30;;;10.77;;
13566;SDS011;6855;48.112;11.298;2023-03-01T03:11:04;20.43;;;11.60;;
13566;SDS011;6855;48.112;11.298;2023-03-01T03:13:32;19.83;;;11.43;;
13566;SDS011;6855;48.112;11.298;2023-03-01T03:16:01;19.90;;;11.97;;
13566;SDS011;6855;48.112;11.298;2023-03-01T03:18:29;22.30;;;12.00;;
13566;SDS011;6855;48.112;11.298;2023-03-01T03:20:57;20.60;;;11.57;;
13566;SDS011;6855;48.112;11.298;2023-03-01T03:23:24;19.40;;;10.50;;
13566;SDS011;6855;48.112;11.298;2023-03-01T03:25:51;21.17;;;11.97;;
13566;SDS011;6855;48.112;11.298;2023-03-01T03:28:18;19.80;;;11.67;;
13566;SDS011;6855;48.112;11.298;2023-03-01T03:30:45;18.50;;;11.07;;
13566;SDS011;6855;48.112;11.298;2023-03-01T03:33:14;17.90;;;10.63;;
13566;SDS011;6855;48.112;11.298;2023-03-01T03:35:42;19.27;;;11.70;;
13566;SDS011;6855;48.112;11.298;2023-03-01T03:38:10;18.73;;;11.40;;
13566;SDS011;6855;48.112;11.298;2023-03-01T03:40:42;19.40;;;11.67;;
13566;SDS011;6855;48.112;11.298;2023-03-01T03:43:10;24.93;;;11.50;;
13566;SDS011;6855;48.112;11.298;2023-03-01T03:45:38;21.60;;;12.20;;
13566;SDS011;6855;48.112;11.298;2023-03-01T03:48:07;15.83;;;10.40;;
13566;SDS011;6855;48.112;11.298;2023-03-01T03:50:36;21.47;;;12.90;;
13566;SDS011;6855;48.112;11.298;2023-03-01T03:53:05;18.70;;;10.83;;
13566;SDS011;6855;48.112;11.298;2023-03-01T03:55:32;16.97;;;10.53;;
13566;SDS011;6855;48.112;11.298;2023-03-01T03:58:00;18.37;;;10.47;;
13566;SDS011;6855;48.112;11.298;2023-03-01T04:00:32;16.67;;;11.50;;
13566;SDS011;6855;48.112;11.298;2023-03-01T04:02:59;19.40;;;11.40;;
13566;SDS011;6855;48.112;11.298;2023-03-01T04:05:27;19.33;;;11.73;;
13566;SDS011;6855;48.112;11.298;2023-03-01T04:07:56;19.50;;;11.50;;
13566;SDS011;6855;48.112;11.298;2023-03-01T04:10:32;20.17;;;12.37;;
13566;SDS011;6855;48.112;11.298;2023-03-01T04:13:00;20.00;;;11.80;;
13566;SDS011;6855;48.112;11.298;2023-03-01T04:15:27;25.07;;;12.70;;
13566;SDS011;6855;48.112;11.298;2023-03-01T04:17:54;17.37;;;11.07;;
13566;SDS011;6855;48.112;11.298;2023-03-01T04:20:23;19.77;;;11.10;;
13566;SDS011;6855;48.112;11.298;2023-03-01T04:22:51;31.23;;;12.03;;
13566;SDS011;6855;48.112;11.298;2023-03-01T04:25:19;20.23;;;10.60;;
13566;SDS011;6855;48.112;11.298;2023-03-01T04:27:47;21.80;;;11.93;;
13566;SDS011;6855;48.112;11.298;2023-03-01T04:30:14;22.40;;;11.30;;
13566;SDS011;6855;48.112;11.298;2023-03-01T04:32:41;18.90;;;11.07;;
13566;SDS011;6855;48.112;11.298;2023-03-01T04:35:09;24.60;;;12.87;;
13566;SDS011;6855;48.112;11.298;2023-03-01T04:37:36;25.13;;;13.00;;
13566;SDS011;6855;48.112;11.298;2023-03-01T04:40:04;25.77;;;12.93;;
13566;SDS011;6855;48.112;11.298;2023-03-01T04:42:42;23.17;;;12.20;;
13566;SDS011;6855;48.112;11.298;2023-03-01T04:45:09;22.80;;;11.90;;
13566;SDS011;6855;48.112;11.298;2023-03-01T04:47:38;21.80;;;11.83;;
13566;SDS011;6855;48.112;11.298;2023-03-01T04:50:06;20.90;;;11.57;;
13566;SDS011;6855;48.112;11.298;2023-03-01T04:52:34;22.67;;;11.80;;
13566;SDS011;6855;48.112;11.298;2023-03-01T04:55:01;20.03;;;11.30;;
13566;SDS011;6855;48.112;11.298;2023-03-01T04:57:28;22.70;;;12.07;;
13566;SDS011;6855;48.112;11.298;2023-03-01T04:59:57;23.67;;;11.83;;
13566;SDS011;6855;48.112;11.298;2023-03-01T05:02:24;27.37;;;13.40;;
13566;SDS011;6855;48.112;11.298;2023-03-01T05:04:52;28.70;;;13.77;;
13566;SDS011;6855;48.112;11.298;2023-03-01T05:07:22;21.73;;;11.17;;
13566;SDS011;6855;48.112;11.298;2023-03-01T05:09:51;21.83;;;12.80;;
13566;SDS011;6855;48.112;11.298;2023-03-01T05:12:19;17.43;;;11.20;;
13566;SDS011;6855;48.112;11.298;2023-03-01T05:14:46;18.10;;;12.00;;
13566;SDS011;6855;48.112;11.298;2023-03-01T05:17:15;21.17;;;12.00;;
13566;SDS011;6855;48.112;11.298;2023-03-01T05:19:42;15.20;;;9.03;;
13566;SDS011;6855;48.112;11.298;2023-03-01T05:22:09;19.90;;;12.13;;
13566;SDS011;6855;48.112;11.298;2023-03-01T05:24:36;23.33;;;11.17;;
13566;SDS011;6855;48.112;11.298;2023-03-01T05:27:04;24.20;;;12.27;;
13566;SDS011;6855;48.112;11.298;2023-03-01T05:29:31;25.43;;;12.37;;
13566;SDS011;6855;48.112;11.298;2023-03-01T05:32:00;20.40;;;11.90;;
13566;SDS011;6855;48.112;11.298;2023-03-01T05:34:30;16.73;;;10.70;;
13566;SDS011;6855;48.112;11.298;2023-03-01T05:36:58;17.80;;;10.80;;
13566;SDS011;6855;48.112;11.298;2023-03-01T05:39:26;18.80;;;11.63;;
13566;SDS011;6855;48.112;11.298;2023-03-01T05:41:55;22.17;;;11.60;;
13566;SDS011;6855;48.112;11.298;2023-03-01T05:44:22;19.03;;;11.67;;
13566;SDS011;6855;48.112;11.298;2023-03-01T05:46:50;19.90;;;11.37;;
13566;SDS011;6855;48.112;11.298;2023-03-01T05:49:17;22.20;;;11.60;;
13566;SDS011;6855;48.112;11.298;2023-03-01T05:51:48;22.03;;;12.90;;
13566;SDS011;6855;48.112;11.298;2023-03-01T05:54:16;28.07;;;12.80;;
13566;SDS011;6855;48.112;11.298;2023-03-01T05:56:44;25.53;;;12.33;;
13566;SDS011;6855;48.112;11.298;2023-03-01T05:59:11;19.73;;;11.40;;
13566;SDS011;6855;48.112;11.298;2023-03-01T06:01:41;20.57;;;12.67;;
13566;SDS011;6855;48.112;11.298;2023-03-01T06:04:08;23.30;;;11.93;;
13566;SDS011;6855;48.112;11.298;2023-03-01T06:06:35;22.60;;;14.57;;
13566;SDS011;6855;48.112;11.298;2023-03-01T06:09:04;22.42;;;15.30;;
13566;SDS011;6855;48.112;11.298;2023-03-01T06:11:33;21.83;;;13.67;;
13566;SDS011;6855;48.112;11.298;2023-03-01T06:14:00;22.60;;;12.20;;
13566;SDS011;6855;48.112;11.298;2023-03-01T06:16:27;21.67;;;12.47;;
13566;SDS011;6855;48.112;11.298;2023-03-01T06:18:54;19.90;;;12.13;;
13566;SDS011;6855;48.112;11.298;2023-03-01T06:21:22;23.37;;;12.60;;
13566;SDS011;6855;48.112;11.298;2023-03-01T06:23:49;33.03;;;12.50;;
13566;SDS011;6855;48.112;11.298;2023-03-01T06:26:18;21.97;;;11.53;;
13566;SDS011;6855;48.112;11.298;2023-03-01T06:28:45;21.80;;;12.23;;
13566;SDS011;6855;48.112;11.298;2023-03-01T06:31:12;24.10;;;12.73;;
13566;SDS011;6855;48.112;11.298;2023-03-01T06:33:39;26.00;;;11.67;;
13566;SDS011;6855;48.112;11.298;2023-03-01T06:36:07;20.80;;;11.43;;
13566;SDS011;6855;48.112;11.298;2023-03-01T06:38:35;22.23;;;11.47;;
13566;SDS011;6855;48.112;11.298;2023-03-01T06:41:02;21.67;;;12.17;;
13566;SDS011;6855;48.112;11.298;2023-03-01T06:43:31;21.33;;;12.07;;
13566;SDS011;6855;48.112;11.298;2023-03-01T06:45:58;22.17;;;11.80;;
13566;SDS011;6855;48.112;11.298;2023-03-01T06:48:25;23.60;;;13.50;;
13566;SDS011;6855;48.112;11.298;2023-03-01T06:50:53;20.43;;;12.23;;
13566;SDS011;6855;48.112;11.298;2023-03-01T06:53:20;21.30;;;11.70;;
13566;SDS011;6855;48.112;11.298;2023-03-01T06:55:47;22.60;;;12.73;;
13566;SDS011;6855;48.112;11.298;2023-03-01T06:58:14;20.20;;;11.67;;
13566;SDS011;6855;48.112;11.298;2023-03-01T07:00:43;23.57;;;12.23;;
13566;SDS011;6855;48.112;11.298;2023-03-01T07:03:10;20.10;;;12.03;;
13566;SDS011;6855;48.112;11.298;2023-03-01T07:05:37;21.83;;;12.33;;
13566;SDS011;6855;48.112;11.298;2023-03-01T07:08:04;20.90;;;12.30;;
13566;SDS011;6855;48.112;11.298;2023-03-01T07:10:31;21.50;;;12.07;;
13566;SDS011;6855;48.112;11.298;2023-03-01T07:12:59;18.40;;;10.97;;
13566;SDS011;6855;48.112;11.298;2023-03-01T07:15:26;22.80;;;12.73;;
13566;SDS011;6855;48.112;11.298;2023-03-01T07:17:55;24.27;;;12.40;;
13566;SDS011;6855;48.112;11.298;2023-03-01T07:20:22;23.33;;;13.00;;
13566;SDS011;6855;48.112;11.298;2023-03-01T07:22:50;27.30;;;12.80;;
13566;SDS011;6855;48.112;11.298;2023-03-01T07:25:17;24.37;;;11.80;;
13566;SDS011;6855;48.112;11.298;2023-03-01T07:27:48;22.67;;;13.33;;
13566;SDS011;6855;48.112;11.298;2023-03-01T07:30:15;21.50;;;12.40;;
13566;SDS011;6855;48.112;11.298;2023-03-01T07:32:43;27.73;;;13.90;;
13566;SDS011;6855;48.112;11.298;2023-03-01T07:35:12;22.07;;;13.03;;
13566;SDS011;6855;48.112;11.298;2023-03-01T07:37:39;22.53;;;11.80;;
13566;SDS011;6855;48.112;11.298;2023-03-01T07:40:07;21.80;;;12.40;;
13566;SDS011;6855;48.112;11.298;2023-03-01T07:42:34;20.20;;;12.10;;
13566;SDS011;6855;48.112;11.298;2023-03-01T07:45:02;22.80;;;12.30;;
13566;SDS011;6855;48.112;11.298;2023-03-01T07:47:29;19.93;;;12.57;;
13566;SDS011;6855;48.112;11.298;2023-03-01T07:49:56;24.17;;;13.37;;
13566;SDS011;6855;48.112;11.298;2023-03-01T07:52:25;22.47;;;13.30;;
13566;SDS011;6855;48.112;11.298;2023-03-01T07:54:52;21.10;;;12.77;;
13566;SDS011;6855;48.112;11.298;2023-03-01T07:57:20;20.97;;;12.80;;
13566;SDS011;6855;48.112;11.298;2023-03-01T07:59:47;25.83;;;12.60;;
13566;SDS011;6855;48.112;11.298;2023-03-01T08:02:14;20.30;;;12.10;;
13566;SDS011;6855;48.112;11.298;2023-03-01T08:04:41;21.30;;;11.70;;
13566;SDS011;6855;48.112;11.298;2023-03-01T08:07:08;20.80;;;11.67;;
13566;SDS011;6855;48.112;11.298;2023-03-01T08:09:37;21.87;;;12.20;;
13566;SDS011;6855;48.112;11.298;2023-03-01T08:12:05;20.57;;;11.50;;
13566;SDS011;6855;48.112;11.298;2023-03-01T08:14:32;25.50;;;12.10;;
13566;SDS011;6855;48.112;11.298;2023-03-01T08:16:59;21.40;;;12.30;;
13566;SDS011;6855;48.112;11.298;2023-03-01T08:19:28;22.30;;;12.73;;
13566;SDS011;6855;48.112;11.298;2023-03-01T08:21:55;25.13;;;11.90;;
13566;SDS011;6855;48.112;11.298;2023-03-01T08:24:23;22.63;;;12.13;;
13566;SDS011;6855;48.112;11.298;2023-03-01T08:26:52;21.33;;;12.37;;
13566;SDS011;6855;48.112;11.298;2023-03-01T08:29:19;23.50;;;12.70;;
13566;SDS011;6855;48.112;11.298;2023-03-01T08:31:46;23.43;;;13.00;;
13566;SDS011;6855;48.112;11.298;2023-03-01T08:34:15;21.00;;;12.10;;
13566;SDS011;6855;48.112;11.298;2023-03-01T08:36:42;20.60;;;12.20;;
13566;SDS011;6855;48.112;11.298;2023-03-01T08:39:11;23.60;;;12.73;;
13566;SDS011;6855;48.112;11.298;2023-03-01T08:41:39;22.43;;;12.10;;
13566;SDS011;6855;48.112;11.298;2023-03-01T08:44:08;23.50;;;12.90;;
13566;SDS011;6855;48.112;11.298;2023-03-01T08:46:37;24.47;;;12.00;;
13566;SDS011;6855;48.112;11.298;2023-03-01T08:49:05;26.77;;;13.10;;
13566;SDS011;6855;48.112;11.298;2023-03-01T08:51:33;24.90;;;12.53;;
13566;SDS011;6855;48.112;11.298;2023-03-01T08:54:02;19.73;;;12.23;;
13566;SDS011;6855;48.112;11.298;2023-03-01T08:56:29;23.13;;;12.37;;
13566;SDS011;6855;48.112;11.298;2023-03-01T08:58:56;19.90;;;13.47;;
13566;SDS011;6855;48.112;11.298;2023-03-01T09:01:25;22.63;;;12.63;;
13566;SDS011;6855;48.112;11.298;2023-03-01T09:03:52;23.37;;;13.13;;
13566;SDS011;6855;48.112;11.298;2023-03-01T09:06:19;22.30;;;12.13;;
13566;SDS011;6855;48.112;11.298;2023-03-01T09:08:49;21.20;;;12.97;;
13566;SDS011;6855;48.112;11.298;2023-03-01T09:11:17;23.77;;;12.67;;
13566;SDS011;6855;48.112;11.298;2023-03-01T09:13:45;30.90;;;12.73;;
13566;SDS011;6855;48.112;11.298;2023-03-01T09:16:12;22.20;;;11.70;;
13566;SDS011;6855;48.112;11.298;2023-03-01T09:18:41;22.37;;;12.83;;
13566;SDS011;6855;48.112;11.298;2023-03-01T09:21:09;24.30;;;14.90;;
13566;SDS011;6855;48.112;11.298;2023-03-01T09:23:37;27.13;;;12.90;;
13566;SDS011;6855;48.112;11.298;2023-03-01T09:26:04;25.53;;;13.90;;
13566;SDS011;6855;48.112;11.298;2023-03-01T09:28:31;24.17;;;12.57;;
13566;SDS011;6855;48.112;11.298;2023-03-01T09:30:59;25.43;;;13.87;;
13566;SDS011;6855;48.112;11.298;2023-03-01T09:33:26;25.70;;;13.70;;
13566;SDS011;6855;48.112;11.298;2023-03-01T09:35:57;24.23;;;13.37;;
13566;SDS011;6855;48.112;11.298;2023-03-01T09:38:24;20.23;;;12.80;;
13566;SDS011;6855;48.112;11.298;2023-03-01T09:40:51;22.67;;;12.60;;
13566;SDS011;6855;48.112;11.298;2023-03-01T09:43:20;27.80;;;13.17;;
13566;SDS011;6855;48.112;11.298;2023-03-01T09:45:50;26.60;;;13.20;;
13566;SDS011;6855;48.112;11.298;2023-03-01T09:48:21;24.67;;;13.10;;
13566;SDS011;6855;48.112;11.298;2023-03-01T09:50:49;24.97;;;14.40;;
13566;SDS011;6855;48.112;11.298;2023-03-01T09:53:19;20.73;;;11.70;;
13566;SDS011;6855;48.112;11.298;2023-03-01T09:55:48;25.30;;;13.00;;
13566;SDS011;6855;48.112;11.298;2023-03-01T10:01:06;25.47;;;14.40;;
13566;SDS011;6855;48.112;11.298;2023-03-01T10:03:39;26.67;;;13.67;;
13566;SDS011;6855;48.112;11.298;2023-03-01T10:06:11;20.50;;;12.37;;
13566;SDS011;6855;48.112;11.298;2023-03-01T10:08:41;22.40;;;14.00;;
13566;SDS011;6855;48.112;11.298;2023-03-01T10:11:17;28.27;;;14.57;;
13566;SDS011;6855;48.112;11.298;2023-03-01T10:13:47;24.60;;;13.03;;
13566;SDS011;6855;48.112;11.298;2023-03-01T10:16:19;24.03;;;12.93;;
13566;SDS011;6855;48.112;11.298;2023-03-01T10:18:51;23.13;;;11.97;;
13566;SDS011;6855;48.112;11.298;2023-03-01T10:21:20;27.77;;;14.47;;
13566;SDS011;6855;48.112;11.298;2023-03-01T10:23:50;30.30;;;13.93;;
13566;SDS011;6855;48.112;11.298;2023-03-01T10:26:28;25.77;;;12.97;;
13566;SDS011;6855;48.112;11.298;2023-03-01T10:29:02;25.87;;;13.23;;
13566;SDS011;6855;48.112;11.298;2023-03-01T10:31:33;30.43;;;13.63;;
13566;SDS011;6855;48.112;11.298;2023-03-01T10:34:02;22.20;;;14.40;;
13566;SDS011;6855;48.112;11.298;2023-03-01T10:36:29;31.90;;;14.57;;
13566;SDS011;6855;48.112;11.298;2023-03-01T10:39:01;25.70;;;13.50;;
13566;SDS011;6855;48.112;11.298;2023-03-01T10:41:30;20.53;;;12.83;;
13566;SDS011;6855;48.112;11.298;2023-03-01T10:43:58;21.43;;;13.00;;
13566;SDS011;6855;48.112;11.298;2023-03-01T10:46:26;24.87;;;13.00;;
13566;SDS011;6855;48.112;11.298;2023-03-01T10:49:07;23.90;;;13.30;;
13566;SDS011;6855;48.112;11.298;2023-03-01T10:51:34;23.33;;;13.00;;
13566;SDS011;6855;48.112;11.298;2023-03-01T10:54:03;25.60;;;14.07;;
13566;SDS011;6855;48.112;11.298;2023-03-01T10:56:33;24.30;;;12.67;;
13566;SDS011;6855;48.112;11.298;2023-03-01T10:59:19;28.23;;;16.57;;
13566;SDS011;6855;48.112;11.298;2023-03-01T11:01:47;25.27;;;14.80;;
13566;SDS011;6855;48.112;11.298;2023-03-01T11:04:27;26.03;;;13.73;;
13566;SDS011;6855;48.112;11.298;2023-03-01T11:06:57;25.40;;;14.07;;
13566;SDS011;6855;48.112;11.298;2023-03-01T11:09:26;23.73;;;14.27;;
13566;SDS011;6855;48.112;11.298;2023-03-01T11:12:02;28.30;;;12.20;;
13566;SDS011;6855;48.112;11.298;2023-03-01T11:14:31;21.70;;;12.70;;
13566;SDS011;6855;48.112;11.298;2023-03-01T11:17:01;21.80;;;12.97;;
13566;SDS011;6855;48.112;11.298;2023-03-01T11:19:28;23.10;;;11.93;;
13566;SDS011;6855;48.112;11.298;2023-03-01T11:21:57;20.80;;;12.33;;
13566;SDS011;6855;48.112;11.298;2023-03-01T11:24:29;20.23;;;12.63;;
13566;SDS011;6855;48.112;11.298;2023-03-01T11:26:57;18.70;;;11.77;;
13566;SDS011;6855;48.112;11.298;2023-03-01T11:29:27;26.37;;;13.27;;
13566;SDS011;6855;48.112;11.298;2023-03-01T11:31:57;20.40;;;12.73;;
13566;SDS011;6855;48.112;11.298;2023-03-01T11:34:35;22.90;;;12.80;;
13566;SDS011;6855;48.112;11.298;2023-03-01T11:37:07;25.53;;;12.73;;
13566;SDS011;6855;48.112;11.298;2023-03-01T11:39:39;17.87;;;12.40;;
13566;SDS011;6855;48.112;11.298;2023-03-01T11:42:10;23.93;;;13.07;;
13566;SDS011;6855;48.112;11.298;2023-03-01T11:44:38;17.20;;;11.70;;
13566;SDS011;6855;48.112;11.298;2023-03-01T11:47:10;22.77;;;12.90;;
13566;SDS011;6855;48.112;11.298;2023-03-01T11:49:45;21.87;;;12.20;;
13566;SDS011;6855;48.112;11.298;2023-03-01T11:52:16;21.13;;;12.80;;
13566;SDS011;6855;48.112;11.298;2023-03-01T11:54:50;22.27;;;13.60;;
13566;SDS011;6855;48.112;11.298;2023-03-01T11:57:23;19.97;;;13.00;;
13566;SDS011;6855;48.112;11.298;2023-03-01T11:59:59;19.30;;;12.40;;
13566;SDS011;6855;48.112;11.298;2023-03-01T12:05:22;18.07;;;12.23;;
13566;SDS011;6855;48.112;11.298;2023-03-01T12:07:52;18.60;;;12.07;;
13566;SDS011;6855;48.112;11.298;2023-03-01T12:10:23;22.40;;;14.33;;
13566;SDS011;6855;48.112;11.298;2023-03-01T12:13:17;19.40;;;12.20;;
13566;SDS011;6855;48.112;11.298;2023-03-01T12:15:59;19.20;;;13.53;;
13566;SDS011;6855;48.112;11.298;2023-03-01T12:18:43;22.20;;;14.10;;
13566;SDS011;6855;48.112;11.298;2023-03-01T12:21:18;18.80;;;12.47;;
13566;SDS011;6855;48.112;11.298;2023-03-01T12:23:55;23.23;;;15.70;;
13566;SDS011;6855;48.112;11.298;2023-03-01T12:26:30;20.70;;;13.97;;
13566;SDS011;6855;48.112;11.298;2023-03-01T12:34:44;20.07;;;14.37;;
13566;SDS011;6855;48.112;11.298;2023-03-01T12:37:17;24.30;;;14.20;;
13566;SDS011;6855;48.112;11.298;2023-03-01T12:39:51;21.17;;;14.90;;
13566;SDS011;6855;48.112;11.298;2023-03-01T12:42:24;18.20;;;13.60;;
13566;SDS011;6855;48.112;11.298;2023-03-01T12:45:03;17.47;;;13.50;;
13566;SDS011;6855;48.112;11.298;2023-03-01T12:47:39;20.03;;;13.77;;
13566;SDS011;6855;48.112;11.298;2023-03-01T12:50:11;19.50;;;13.30;;
13566;SDS011;6855;48.112;11.298;2023-03-01T12:52:41;19.00;;;13.90;;
13566;SDS011;6855;48.112;11.298;2023-03-01T12:55:16;19.20;;;14.17;;
13566;SDS011;6855;48.112;11.298;2023-03-01T12:57:47;17.40;;;13.33;;
13566;SDS011;6855;48.112;11.298;2023-03-01T13:00:22;22.83;;;16.10;;
13566;SDS011;6855;48.112;11.298;2023-03-01T13:02:52;28.07;;;19.10;;
13566;SDS011;6855;48.112;11.298;2023-03-01T13:05:24;17.77;;;13.47;;
13566;SDS011;6855;48.112;11.298;2023-03-01T13:07:55;19.20;;;14.50;;
13566;SDS011;6855;48.112;11.298;2023-03-01T13:10:26;18.67;;;13.53;;
13566;SDS011;6855;48.112;11.298;2023-03-01T13:13:12;19.60;;;14.67;;
13566;SDS011;6855;48.112;11.298;2023-03-01T13:15:40;18.00;;;14.90;;
13566;SDS011;6855;48.112;11.298;2023-03-01T13:18:30;21.40;;;14.70;;
13566;SDS011;6855;48.112;11.298;2023-03-01T13:20:58;17.70;;;14.10;;
13566;SDS011;6855;48.112;11.298;2023-03-01T13:23:27;19.27;;;14.93;;
13566;SDS011;6855;48.112;11.298;2023-03-01T13:28:48;19.17;;;14.27;;
13566;SDS011;6855;48.112;11.298;2023-03-01T13:34:01;18.80;;;14.53;;
13566;SDS011;6855;48.112;11.298;2023-03-01T13:39:27;20.63;;;13.67;;
13566;SDS011;6855;48.112;11.298;2023-03-01T13:41:57;25.83;;;14.60;;
13566;SDS011;6855;48.112;11.298;2023-03-01T13:44:26;21.23;;;14.60;;
13566;SDS011;6855;48.112;11.298;2023-03-01T13:47:00;20.53;;;14.70;;
13566;SDS011;6855;48.112;11.298;2023-03-01T13:49:33;20.40;;;13.90;;
13566;SDS011;6855;48.112;11.298;2023-03-01T13:52:03;22.77;;;15.43;;
13566;SDS011;6855;48.112;11.298;2023-03-01T13:54:30;25.60;;;15.00;;
13566;SDS011;6855;48.112;11.298;2023-03-01T13:56:59;21.43;;;14.60;;
13566;SDS011;6855;48.112;11.298;2023-03-01T13:59:28;19.87;;;14.13;;
13566;SDS011;6855;48.112;11.298;2023-03-01T14:01:56;22.97;;;14.83;;
13566;SDS011;6855;48.112;11.298;2023-03-01T14:04:24;19.00;;;14.10;;
13566;SDS011;6855;48.112;11.298;2023-03-01T14:06:52;20.70;;;14.67;;
13566;SDS011;6855;48.112;11.298;2023-03-01T14:09:35;21.40;;;15.50;;
13566;SDS011;6855;48.112;11.298;2023-03-01T14:12:16;26.10;;;14.87;;
13566;SDS011;6855;48.112;11.298;2023-03-01T14:14:50;23.20;;;15.47;;
13566;SDS011;6855;48.112;11.298;2023-03-01T14:17:31;20.97;;;14.33;;
13566;SDS011;6855;48.112;11.298;2023-03-01T14:20:00;21.70;;;13.93;;
13566;SDS011;6855;48.112;11.298;2023-03-01T14:22:30;20.43;;;14.10;;
13566;SDS011;6855;48.112;11.298;2023-03-01T14:24:59;21.57;;;14.40;;
13566;SDS011;6855;48.112;11.298;2023-03-01T14:27:28;19.30;;;14.03;;
13566;SDS011;6855;48.112;11.298;2023-03-01T14:29:58;22.00;;;14.43;;
13566;SDS011;6855;48.112;11.298;2023-03-01T14:32:27;22.73;;;15.90;;
13566;SDS011;6855;48.112;11.298;2023-03-01T14:34:54;28.53;;;13.87;;
13566;SDS011;6855;48.112;11.298;2023-03-01T14:37:23;20.20;;;13.40;;
13566;SDS011;6855;48.112;11.298;2023-03-01T14:39:51;19.33;;;13.57;;
13566;SDS011;6855;48.112;11.298;2023-03-01T14:42:19;22.20;;;14.53;;
13566;SDS011;6855;48.112;11.298;2023-03-01T14:44:47;18.70;;;13.17;;
13566;SDS011;6855;48.112;11.298;2023-03-01T14:47:19;25.77;;;14.97;;
13566;SDS011;6855;48.112;11.298;2023-03-01T14:49:50;19.27;;;14.47;;
13566;SDS011;6855;48.112;11.298;2023-03-01T14:52:21;23.80;;;15.60;;